sensor_id;sensor_type;location;lat;lon;timestamp;P1;durP1;ratioP1;P2;durP2;ratioP2
26820;SDS011;37186;51.394;5.454;2023-04-24T00:02:34;3.10;;;3.00;;
26820;SDS011;37186;51.394;5.454;2023-04-24T00:05:38;3.10;;;3.00;;
26820;SDS011;37186;51.394;5.454;2023-04-24T00:08:40;3.10;;;3.00;;
26820;SDS011;37186;51.394;5.454;2023-04-24T00:11:40;2.87;;;2.77;;
26820;SDS011;37186;51.394;5.454;2023-04-24T00:14:41;3.20;;;3.10;;
26820;SDS011;37186;51.394;5.454;2023-04-24T00:17:41;3.20;;;3.10;;
26820;SDS011;37186;51.394;5.454;2023-04-24T00:20:42;3.30;;;3.20;;
26820;SDS011;37186;51.394;5.454;2023-04-24T00:23:43;3.10;;;3.00;;
26820;SDS011;37186;51.394;5.454;2023-04-24T00:26:44;3.00;;;2.90;;
26820;SDS011;37186;51.394;5.454;2023-04-24T00:29:45;3.10;;;3.00;;
26820;SDS011;37186;51.394;5.454;2023-04-24T00:32:45;3.20;;;3.10;;
26820;SDS011;37186;51.394;5.454;2023-04-24T00:35:46;3.03;;;2.93;;
26820;SDS011;37186;51.394;5.454;2023-04-24T00:38:46;3.20;;;3.10;;
26820;SDS011;37186;51.394;5.454;2023-04-24T00:41:47;3.17;;;3.07;;
26820;SDS011;37186;51.394;5.454;2023-04-24T00:44:48;3.10;;;3.00;;
26820;SDS011;37186;51.394;5.454;2023-04-24T00:47:49;3.00;;;2.90;;
26820;SDS011;37186;51.394;5.454;2023-04-24T00:50:52;3.10;;;3.00;;
26820;SDS011;37186;51.394;5.454;2023-04-24T00:53:53;3.10;;;3.00;;
26820;SDS011;37186;51.394;5.454;2023-04-24T00:56:53;2.90;;;2.80;;
26820;SDS011;37186;51.394;5.454;2023-04-24T00:59:54;3.00;;;2.90;;
26820;SDS011;37186;51.394;5.454;2023-04-24T01:02:55;2.90;;;2.80;;
26820;SDS011;37186;51.394;5.454;2023-04-24T01:05:58;3.03;;;2.93;;
26820;SDS011;37186;51.394;5.454;2023-04-24T01:08:59;2.97;;;2.87;;
26820;SDS011;37186;51.394;5.454;2023-04-24T01:12:00;2.90;;;2.80;;
26820;SDS011;37186;51.394;5.454;2023-04-24T01:15:01;2.80;;;2.70;;
26820;SDS011;37186;51.394;5.454;2023-04-24T01:18:03;3.00;;;2.90;;
26820;SDS011;37186;51.394;5.454;2023-04-24T01:21:04;2.80;;;2.70;;
26820;SDS011;37186;51.394;5.454;2023-04-24T01:24:06;2.60;;;2.60;;
26820;SDS011;37186;51.394;5.454;2023-04-24T01:27:08;2.90;;;2.80;;
26820;SDS011;37186;51.394;5.454;2023-04-24T01:30:10;2.90;;;2.80;;
26820;SDS011;37186;51.394;5.454;2023-04-24T01:33:11;2.73;;;2.70;;
26820;SDS011;37186;51.394;5.454;2023-04-24T01:36:11;3.07;;;2.97;;
26820;SDS011;37186;51.394;5.454;2023-04-24T01:39:13;2.93;;;2.83;;
26820;SDS011;37186;51.394;5.454;2023-04-24T01:42:15;2.90;;;2.80;;
26820;SDS011;37186;51.394;5.454;2023-04-24T01:45:16;2.90;;;2.80;;
26820;SDS011;37186;51.394;5.454;2023-04-24T01:48:17;2.90;;;2.80;;
26820;SDS011;37186;51.394;5.454;2023-04-24T01:51:18;2.97;;;2.87;;
26820;SDS011;37186;51.394;5.454;2023-04-24T01:54:18;2.90;;;2.80;;
26820;SDS011;37186;51.394;5.454;2023-04-24T01:57:19;2.90;;;2.80;;
26820;SDS011;37186;51.394;5.454;2023-04-24T02:00:20;2.90;;;2.80;;
26820;SDS011;37186;51.394;5.454;2023-04-24T02:03:20;3.00;;;2.90;;
26820;SDS011;37186;51.394;5.454;2023-04-24T02:06:21;2.80;;;2.70;;
26820;SDS011;37186;51.394;5.454;2023-04-24T02:09:22;2.60;;;2.60;;
26820;SDS011;37186;51.394;5.454;2023-04-24T02:12:22;2.90;;;2.80;;
26820;SDS011;37186;51.394;5.454;2023-04-24T02:15:23;3.10;;;3.00;;
26820;SDS011;37186;51.394;5.454;2023-04-24T02:18:23;2.90;;;2.80;;
26820;SDS011;37186;51.394;5.454;2023-04-24T02:21:24;3.00;;;2.90;;
26820;SDS011;37186;51.394;5.454;2023-04-24T02:24:25;2.90;;;2.80;;
26820;SDS011;37186;51.394;5.454;2023-04-24T02:27:25;2.90;;;2.80;;
26820;SDS011;37186;51.394;5.454;2023-04-24T02:30:26;2.63;;;2.63;;
26820;SDS011;37186;51.394;5.454;2023-04-24T02:33:26;2.83;;;2.73;;
26820;SDS011;37186;51.394;5.454;2023-04-24T02:36:27;3.00;;;2.90;;
26820;SDS011;37186;51.394;5.454;2023-04-24T02:39:28;2.70;;;2.70;;
26820;SDS011;37186;51.394;5.454;2023-04-24T02:42:28;3.00;;;2.90;;
26820;SDS011;37186;51.394;5.454;2023-04-24T02:45:29;3.00;;;2.90;;
26820;SDS011;37186;51.394;5.454;2023-04-24T02:48:29;3.00;;;2.90;;
26820;SDS011;37186;51.394;5.454;2023-04-24T02:51:30;2.90;;;2.80;;
26820;SDS011;37186;51.394;5.454;2023-04-24T02:54:31;2.90;;;2.80;;
26820;SDS011;37186;51.394;5.454;2023-04-24T02:57:31;3.10;;;3.00;;
26820;SDS011;37186;51.394;5.454;2023-04-24T03:00:32;2.93;;;2.83;;
26820;SDS011;37186;51.394;5.454;2023-04-24T03:03:32;2.90;;;2.80;;
26820;SDS011;37186;51.394;5.454;2023-04-24T03:06:33;3.03;;;2.93;;
26820;SDS011;37186;51.394;5.454;2023-04-24T03:09:35;3.00;;;2.90;;
26820;SDS011;37186;51.394;5.454;2023-04-24T03:12:35;2.90;;;2.80;;
26820;SDS011;37186;51.394;5.454;2023-04-24T03:15:36;2.80;;;2.70;;
26820;SDS011;37186;51.394;5.454;2023-04-24T03:18:36;3.10;;;3.00;;
26820;SDS011;37186;51.394;5.454;2023-04-24T03:21:37;3.00;;;2.90;;
26820;SDS011;37186;51.394;5.454;2023-04-24T03:24:40;3.00;;;2.90;;
26820;SDS011;37186;51.394;5.454;2023-04-24T03:27:41;3.03;;;2.93;;
26820;SDS011;37186;51.394;5.454;2023-04-24T03:30:41;3.00;;;2.90;;
26820;SDS011;37186;51.394;5.454;2023-04-24T03:33:42;2.83;;;2.73;;
26820;SDS011;37186;51.394;5.454;2023-04-24T03:36:42;2.90;;;2.80;;
26820;SDS011;37186;51.394;5.454;2023-04-24T03:39:43;2.93;;;2.83;;
26820;SDS011;37186;51.394;5.454;2023-04-24T03:42:43;3.10;;;3.00;;
26820;SDS011;37186;51.394;5.454;2023-04-24T03:45:44;3.00;;;2.90;;
26820;SDS011;37186;51.394;5.454;2023-04-24T03:48:45;2.90;;;2.80;;
26820;SDS011;37186;51.394;5.454;2023-04-24T03:51:45;3.07;;;2.97;;
26820;SDS011;37186;51.394;5.454;2023-04-24T03:54:46;2.87;;;2.77;;
26820;SDS011;37186;51.394;5.454;2023-04-24T03:57:46;3.00;;;2.90;;
26820;SDS011;37186;51.394;5.454;2023-04-24T04:00:47;3.03;;;2.93;;
26820;SDS011;37186;51.394;5.454;2023-04-24T04:03:47;3.10;;;3.00;;
26820;SDS011;37186;51.394;5.454;2023-04-24T04:06:48;2.93;;;2.83;;
26820;SDS011;37186;51.394;5.454;2023-04-24T04:09:48;3.00;;;2.90;;
26820;SDS011;37186;51.394;5.454;2023-04-24T04:12:49;3.10;;;3.00;;
26820;SDS011;37186;51.394;5.454;2023-04-24T04:15:50;3.03;;;2.93;;
26820;SDS011;37186;51.394;5.454;2023-04-24T04:18:50;3.10;;;3.00;;
26820;SDS011;37186;51.394;5.454;2023-04-24T04:21:51;3.10;;;3.00;;
26820;SDS011;37186;51.394;5.454;2023-04-24T04:24:53;3.03;;;2.93;;
26820;SDS011;37186;51.394;5.454;2023-04-24T04:27:53;2.93;;;2.83;;
26820;SDS011;37186;51.394;5.454;2023-04-24T04:30:54;2.87;;;2.77;;
26820;SDS011;37186;51.394;5.454;2023-04-24T04:33:55;3.00;;;2.90;;
26820;SDS011;37186;51.394;5.454;2023-04-24T04:36:55;3.00;;;2.90;;
26820;SDS011;37186;51.394;5.454;2023-04-24T04:39:56;2.90;;;2.80;;
26820;SDS011;37186;51.394;5.454;2023-04-24T04:42:58;3.00;;;2.90;;
26820;SDS011;37186;51.394;5.454;2023-04-24T04:45:58;3.10;;;3.00;;
26820;SDS011;37186;51.394;5.454;2023-04-24T04:49:00;2.93;;;2.83;;
26820;SDS011;37186;51.394;5.454;2023-04-24T04:52:02;3.10;;;3.00;;
26820;SDS011;37186;51.394;5.454;2023-04-24T04:55:03;3.13;;;3.03;;
26820;SDS011;37186;51.394;5.454;2023-04-24T04:58:05;3.10;;;3.00;;
26820;SDS011;37186;51.394;5.454;2023-04-24T05:01:05;3.00;;;2.90;;
26820;SDS011;37186;51.394;5.454;2023-04-24T05:04:07;3.10;;;3.00;;
26820;SDS011;37186;51.394;5.454;2023-04-24T05:07:07;2.90;;;2.80;;
26820;SDS011;37186;51.394;5.454;2023-04-24T05:10:08;3.00;;;2.90;;
26820;SDS011;37186;51.394;5.454;2023-04-24T05:13:09;3.00;;;2.90;;
26820;SDS011;37186;51.394;5.454;2023-04-24T05:16:09;3.00;;;2.90;;
26820;SDS011;37186;51.394;5.454;2023-04-24T05:19:10;2.83;;;2.73;;
26820;SDS011;37186;51.394;5.454;2023-04-24T05:22:11;2.67;;;2.63;;
26820;SDS011;37186;51.394;5.454;2023-04-24T05:25:12;3.00;;;2.90;;
26820;SDS011;37186;51.394;5.454;2023-04-24T05:28:12;2.90;;;2.80;;
26820;SDS011;37186;51.394;5.454;2023-04-24T05:31:13;3.03;;;2.93;;
26820;SDS011;37186;51.394;5.454;2023-04-24T05:34:14;3.00;;;2.90;;
26820;SDS011;37186;51.394;5.454;2023-04-24T05:37:16;3.00;;;2.90;;
26820;SDS011;37186;51.394;5.454;2023-04-24T05:40:16;3.00;;;2.90;;
26820;SDS011;37186;51.394;5.454;2023-04-24T05:43:17;2.90;;;2.80;;
26820;SDS011;37186;51.394;5.454;2023-04-24T05:46:17;3.00;;;2.90;;
26820;SDS011;37186;51.394;5.454;2023-04-24T05:49:18;3.00;;;2.90;;
26820;SDS011;37186;51.394;5.454;2023-04-24T05:52:18;2.90;;;2.80;;
26820;SDS011;37186;51.394;5.454;2023-04-24T05:55:19;3.00;;;2.90;;
26820;SDS011;37186;51.394;5.454;2023-04-24T05:58:20;2.90;;;2.80;;
26820;SDS011;37186;51.394;5.454;2023-04-24T06:01:20;3.07;;;2.97;;
26820;SDS011;37186;51.394;5.454;2023-04-24T06:04:21;3.20;;;3.10;;
26820;SDS011;37186;51.394;5.454;2023-04-24T06:07:21;3.30;;;3.20;;
26820;SDS011;37186;51.394;5.454;2023-04-24T06:10:22;3.30;;;3.20;;
26820;SDS011;37186;51.394;5.454;2023-04-24T06:13:22;3.27;;;3.17;;
26820;SDS011;37186;51.394;5.454;2023-04-24T06:16:23;3.40;;;3.30;;
26820;SDS011;37186;51.394;5.454;2023-04-24T06:19:24;3.40;;;3.30;;
26820;SDS011;37186;51.394;5.454;2023-04-24T06:22:24;3.40;;;3.30;;
26820;SDS011;37186;51.394;5.454;2023-04-24T06:25:25;3.30;;;3.20;;
26820;SDS011;37186;51.394;5.454;2023-04-24T06:28:26;3.33;;;3.23;;
26820;SDS011;37186;51.394;5.454;2023-04-24T06:31:27;4.17;;;4.07;;
26820;SDS011;37186;51.394;5.454;2023-04-24T06:34:27;3.90;;;3.80;;
26820;SDS011;37186;51.394;5.454;2023-04-24T06:37:28;3.60;;;3.50;;
26820;SDS011;37186;51.394;5.454;2023-04-24T06:40:29;3.30;;;3.20;;
26820;SDS011;37186;51.394;5.454;2023-04-24T06:43:30;3.00;;;2.90;;
26820;SDS011;37186;51.394;5.454;2023-04-24T06:46:33;2.77;;;2.70;;
26820;SDS011;37186;51.394;5.454;2023-04-24T06:49:34;2.40;;;2.40;;
26820;SDS011;37186;51.394;5.454;2023-04-24T06:52:37;2.33;;;2.33;;
26820;SDS011;37186;51.394;5.454;2023-04-24T06:55:37;2.83;;;2.73;;
26820;SDS011;37186;51.394;5.454;2023-04-24T06:58:38;2.60;;;2.60;;
26820;SDS011;37186;51.394;5.454;2023-04-24T07:01:38;2.50;;;2.50;;
26820;SDS011;37186;51.394;5.454;2023-04-24T07:04:39;2.60;;;2.60;;
26820;SDS011;37186;51.394;5.454;2023-04-24T07:07:39;3.00;;;2.90;;
26820;SDS011;37186;51.394;5.454;2023-04-24T07:10:40;3.10;;;3.00;;
26820;SDS011;37186;51.394;5.454;2023-04-24T07:13:40;3.30;;;3.20;;
26820;SDS011;37186;51.394;5.454;2023-04-24T07:16:44;3.87;;;3.77;;
26820;SDS011;37186;51.394;5.454;2023-04-24T07:19:45;3.30;;;3.20;;
26820;SDS011;37186;51.394;5.454;2023-04-24T07:22:45;3.40;;;3.30;;
26820;SDS011;37186;51.394;5.454;2023-04-24T07:25:46;3.30;;;3.20;;
26820;SDS011;37186;51.394;5.454;2023-04-24T07:28:46;3.23;;;3.13;;
26820;SDS011;37186;51.394;5.454;2023-04-24T07:31:47;3.00;;;2.90;;
26820;SDS011;37186;51.394;5.454;2023-04-24T07:34:48;2.60;;;2.60;;
26820;SDS011;37186;51.394;5.454;2023-04-24T07:37:48;2.80;;;2.70;;
26820;SDS011;37186;51.394;5.454;2023-04-24T07:40:49;2.90;;;2.80;;
26820;SDS011;37186;51.394;5.454;2023-04-24T07:43:49;2.63;;;2.63;;
26820;SDS011;37186;51.394;5.454;2023-04-24T07:46:50;2.70;;;2.70;;
26820;SDS011;37186;51.394;5.454;2023-04-24T07:49:51;2.40;;;2.40;;
26820;SDS011;37186;51.394;5.454;2023-04-24T07:52:51;2.67;;;2.63;;
26820;SDS011;37186;51.394;5.454;2023-04-24T07:55:53;2.77;;;2.70;;
26820;SDS011;37186;51.394;5.454;2023-04-24T07:58:55;3.00;;;2.90;;
26820;SDS011;37186;51.394;5.454;2023-04-24T08:01:55;3.20;;;3.10;;
26820;SDS011;37186;51.394;5.454;2023-04-24T08:04:56;3.20;;;3.10;;
26820;SDS011;37186;51.394;5.454;2023-04-24T08:07:56;3.10;;;3.00;;
26820;SDS011;37186;51.394;5.454;2023-04-24T08:10:57;3.20;;;3.10;;
26820;SDS011;37186;51.394;5.454;2023-04-24T08:13:57;2.97;;;2.87;;
26820;SDS011;37186;51.394;5.454;2023-04-24T08:16:58;2.83;;;2.73;;
26820;SDS011;37186;51.394;5.454;2023-04-24T08:20:00;3.07;;;2.97;;
26820;SDS011;37186;51.394;5.454;2023-04-24T08:23:01;3.17;;;3.07;;
26820;SDS011;37186;51.394;5.454;2023-04-24T08:26:02;3.30;;;3.20;;
26820;SDS011;37186;51.394;5.454;2023-04-24T08:29:03;3.30;;;3.20;;
26820;SDS011;37186;51.394;5.454;2023-04-24T08:32:04;2.97;;;2.87;;
26820;SDS011;37186;51.394;5.454;2023-04-24T08:35:05;2.90;;;2.80;;
26820;SDS011;37186;51.394;5.454;2023-04-24T08:38:08;3.03;;;2.93;;
26820;SDS011;37186;51.394;5.454;2023-04-24T08:41:09;3.00;;;2.90;;
26820;SDS011;37186;51.394;5.454;2023-04-24T08:44:10;3.20;;;3.10;;
26820;SDS011;37186;51.394;5.454;2023-04-24T08:47:11;3.10;;;3.00;;
26820;SDS011;37186;51.394;5.454;2023-04-24T08:50:12;3.00;;;2.90;;
26820;SDS011;37186;51.394;5.454;2023-04-24T08:53:12;2.70;;;2.70;;
26820;SDS011;37186;51.394;5.454;2023-04-24T08:56:14;2.90;;;2.80;;
26820;SDS011;37186;51.394;5.454;2023-04-24T08:59:16;3.00;;;2.90;;
26820;SDS011;37186;51.394;5.454;2023-04-24T09:02:16;3.10;;;3.00;;
26820;SDS011;37186;51.394;5.454;2023-04-24T09:05:17;3.00;;;2.90;;
26820;SDS011;37186;51.394;5.454;2023-04-24T09:08:19;3.10;;;3.00;;
26820;SDS011;37186;51.394;5.454;2023-04-24T09:11:19;3.10;;;3.00;;
26820;SDS011;37186;51.394;5.454;2023-04-24T09:14:20;3.40;;;3.30;;
26820;SDS011;37186;51.394;5.454;2023-04-24T09:17:23;3.27;;;3.17;;
26820;SDS011;37186;51.394;5.454;2023-04-24T09:20:26;3.30;;;3.20;;
26820;SDS011;37186;51.394;5.454;2023-04-24T09:23:28;3.20;;;3.10;;
26820;SDS011;37186;51.394;5.454;2023-04-24T09:26:30;3.27;;;3.17;;
26820;SDS011;37186;51.394;5.454;2023-04-24T09:29:32;3.30;;;3.20;;
26820;SDS011;37186;51.394;5.454;2023-04-24T09:32:33;3.07;;;2.97;;
26820;SDS011;37186;51.394;5.454;2023-04-24T09:35:33;3.07;;;2.97;;
26820;SDS011;37186;51.394;5.454;2023-04-24T09:38:35;3.07;;;2.97;;
26820;SDS011;37186;51.394;5.454;2023-04-24T09:41:47;3.17;;;3.07;;
26820;SDS011;37186;51.394;5.454;2023-04-24T09:44:51;3.07;;;2.97;;
26820;SDS011;37186;51.394;5.454;2023-04-24T09:47:52;3.13;;;3.03;;
26820;SDS011;37186;51.394;5.454;2023-04-24T09:50:54;3.10;;;3.00;;
26820;SDS011;37186;51.394;5.454;2023-04-24T09:53:54;3.10;;;3.00;;
26820;SDS011;37186;51.394;5.454;2023-04-24T09:56:55;3.00;;;2.90;;
26820;SDS011;37186;51.394;5.454;2023-04-24T09:59:56;3.00;;;2.90;;
26820;SDS011;37186;51.394;5.454;2023-04-24T10:02:58;3.07;;;2.97;;
26820;SDS011;37186;51.394;5.454;2023-04-24T10:06:01;3.00;;;2.90;;
26820;SDS011;37186;51.394;5.454;2023-04-24T10:09:02;2.80;;;2.70;;
26820;SDS011;37186;51.394;5.454;2023-04-24T10:12:03;2.97;;;2.87;;
26820;SDS011;37186;51.394;5.454;2023-04-24T10:15:04;3.30;;;3.20;;
26820;SDS011;37186;51.394;5.454;2023-04-24T10:18:06;2.93;;;2.83;;
26820;SDS011;37186;51.394;5.454;2023-04-24T10:21:08;3.00;;;2.90;;
26820;SDS011;37186;51.394;5.454;2023-04-24T10:24:09;3.03;;;2.93;;
26820;SDS011;37186;51.394;5.454;2023-04-24T10:27:11;3.27;;;3.17;;
26820;SDS011;37186;51.394;5.454;2023-04-24T10:30:15;3.27;;;3.17;;
26820;SDS011;37186;51.394;5.454;2023-04-24T10:33:17;3.30;;;3.20;;
26820;SDS011;37186;51.394;5.454;2023-04-24T10:36:18;3.30;;;3.20;;
26820;SDS011;37186;51.394;5.454;2023-04-24T10:39:22;3.00;;;2.90;;
26820;SDS011;37186;51.394;5.454;2023-04-24T10:42:23;3.27;;;3.17;;
26820;SDS011;37186;51.394;5.454;2023-04-24T10:45:23;3.10;;;3.00;;
26820;SDS011;37186;51.394;5.454;2023-04-24T10:48:26;3.00;;;2.90;;
26820;SDS011;37186;51.394;5.454;2023-04-24T10:51:43;3.10;;;3.00;;
26820;SDS011;37186;51.394;5.454;2023-04-24T10:54:48;3.27;;;3.17;;
26820;SDS011;37186;51.394;5.454;2023-04-24T10:58:04;3.30;;;3.20;;
26820;SDS011;37186;51.394;5.454;2023-04-24T11:01:05;3.30;;;3.20;;
26820;SDS011;37186;51.394;5.454;2023-04-24T11:04:06;3.17;;;3.07;;
26820;SDS011;37186;51.394;5.454;2023-04-24T11:07:07;3.20;;;3.10;;
26820;SDS011;37186;51.394;5.454;2023-04-24T11:10:09;3.20;;;3.10;;
26820;SDS011;37186;51.394;5.454;2023-04-24T11:14:01;3.13;;;3.03;;
26820;SDS011;37186;51.394;5.454;2023-04-24T11:17:01;3.27;;;3.17;;
26820;SDS011;37186;51.394;5.454;2023-04-24T11:20:09;3.00;;;2.90;;
26820;SDS011;37186;51.394;5.454;2023-04-24T11:23:12;3.23;;;3.13;;
26820;SDS011;37186;51.394;5.454;2023-04-24T11:26:23;3.00;;;2.90;;
26820;SDS011;37186;51.394;5.454;2023-04-24T11:33:05;3.20;;;3.10;;
26820;SDS011;37186;51.394;5.454;2023-04-24T11:36:06;3.10;;;3.00;;
26820;SDS011;37186;51.394;5.454;2023-04-24T11:39:07;3.00;;;2.90;;
26820;SDS011;37186;51.394;5.454;2023-04-24T11:42:08;3.00;;;2.90;;
26820;SDS011;37186;51.394;5.454;2023-04-24T11:48:20;3.10;;;3.00;;
26820;SDS011;37186;51.394;5.454;2023-04-24T11:51:21;3.10;;;3.00;;
26820;SDS011;37186;51.394;5.454;2023-04-24T11:54:23;3.10;;;3.00;;
26820;SDS011;37186;51.394;5.454;2023-04-24T11:57:25;3.10;;;3.00;;
26820;SDS011;37186;51.394;5.454;2023-04-24T12:00:29;3.20;;;3.10;;
26820;SDS011;37186;51.394;5.454;2023-04-24T12:03:31;3.00;;;2.90;;
26820;SDS011;37186;51.394;5.454;2023-04-24T12:06:31;3.10;;;3.00;;
26820;SDS011;37186;51.394;5.454;2023-04-24T12:12:45;3.10;;;3.00;;
26820;SDS011;37186;51.394;5.454;2023-04-24T12:15:46;3.13;;;3.03;;
26820;SDS011;37186;51.394;5.454;2023-04-24T12:18:47;3.00;;;2.90;;
26820;SDS011;37186;51.394;5.454;2023-04-24T12:22:06;2.90;;;2.80;;
26820;SDS011;37186;51.394;5.454;2023-04-24T12:25:09;2.77;;;2.67;;
26820;SDS011;37186;51.394;5.454;2023-04-24T12:28:11;2.70;;;2.70;;
26820;SDS011;37186;51.394;5.454;2023-04-24T12:31:13;2.73;;;2.70;;
26820;SDS011;37186;51.394;5.454;2023-04-24T12:34:20;2.97;;;2.87;;
26820;SDS011;37186;51.394;5.454;2023-04-24T12:37:24;3.03;;;2.93;;
26820;SDS011;37186;51.394;5.454;2023-04-24T12:40:26;3.03;;;2.93;;
26820;SDS011;37186;51.394;5.454;2023-04-24T12:43:26;3.00;;;2.90;;
26820;SDS011;37186;51.394;5.454;2023-04-24T12:46:27;2.87;;;2.77;;
26820;SDS011;37186;51.394;5.454;2023-04-24T12:49:29;3.07;;;2.97;;
26820;SDS011;37186;51.394;5.454;2023-04-24T12:52:30;2.87;;;2.77;;
26820;SDS011;37186;51.394;5.454;2023-04-24T12:55:32;3.10;;;3.00;;
26820;SDS011;37186;51.394;5.454;2023-04-24T12:58:33;2.77;;;2.70;;
26820;SDS011;37186;51.394;5.454;2023-04-24T13:01:35;2.83;;;2.73;;
26820;SDS011;37186;51.394;5.454;2023-04-24T13:04:35;2.60;;;2.60;;
26820;SDS011;37186;51.394;5.454;2023-04-24T13:07:36;2.90;;;2.80;;
26820;SDS011;37186;51.394;5.454;2023-04-24T13:10:36;2.83;;;2.77;;
26820;SDS011;37186;51.394;5.454;2023-04-24T13:13:37;2.97;;;2.87;;
26820;SDS011;37186;51.394;5.454;2023-04-24T13:16:38;3.13;;;3.03;;
26820;SDS011;37186;51.394;5.454;2023-04-24T13:19:42;3.00;;;2.90;;
26820;SDS011;37186;51.394;5.454;2023-04-24T13:22:43;3.13;;;3.03;;
26820;SDS011;37186;51.394;5.454;2023-04-24T13:25:44;3.23;;;3.13;;
26820;SDS011;37186;51.394;5.454;2023-04-24T13:28:44;2.97;;;2.87;;
26820;SDS011;37186;51.394;5.454;2023-04-24T13:31:49;2.67;;;2.67;;
26820;SDS011;37186;51.394;5.454;2023-04-24T13:34:51;3.10;;;3.00;;
26820;SDS011;37186;51.394;5.454;2023-04-24T13:37:51;2.93;;;2.83;;
26820;SDS011;37186;51.394;5.454;2023-04-24T13:40:52;3.23;;;3.13;;
26820;SDS011;37186;51.394;5.454;2023-04-24T13:43:52;3.17;;;3.07;;
26820;SDS011;37186;51.394;5.454;2023-04-24T13:46:53;3.40;;;3.30;;
26820;SDS011;37186;51.394;5.454;2023-04-24T13:49:56;3.40;;;3.30;;
26820;SDS011;37186;51.394;5.454;2023-04-24T13:52:57;3.30;;;3.20;;
26820;SDS011;37186;51.394;5.454;2023-04-24T13:55:59;3.10;;;3.00;;
26820;SDS011;37186;51.394;5.454;2023-04-24T13:59:00;3.10;;;3.00;;
26820;SDS011;37186;51.394;5.454;2023-04-24T14:02:01;3.20;;;3.10;;
26820;SDS011;37186;51.394;5.454;2023-04-24T14:05:01;2.97;;;2.87;;
26820;SDS011;37186;51.394;5.454;2023-04-24T14:08:03;3.07;;;2.97;;
26820;SDS011;37186;51.394;5.454;2023-04-24T14:11:03;3.07;;;2.97;;
26820;SDS011;37186;51.394;5.454;2023-04-24T14:14:04;3.20;;;3.10;;
26820;SDS011;37186;51.394;5.454;2023-04-24T14:17:05;3.00;;;2.90;;
26820;SDS011;37186;51.394;5.454;2023-04-24T14:20:06;3.17;;;3.07;;
26820;SDS011;37186;51.394;5.454;2023-04-24T14:23:07;3.10;;;3.00;;
26820;SDS011;37186;51.394;5.454;2023-04-24T14:26:08;3.20;;;3.10;;
26820;SDS011;37186;51.394;5.454;2023-04-24T14:29:08;3.20;;;3.10;;
26820;SDS011;37186;51.394;5.454;2023-04-24T14:32:09;3.20;;;3.10;;
26820;SDS011;37186;51.394;5.454;2023-04-24T14:35:10;3.27;;;3.17;;
26820;SDS011;37186;51.394;5.454;2023-04-24T14:38:10;3.10;;;3.00;;
26820;SDS011;37186;51.394;5.454;2023-04-24T14:41:11;3.20;;;3.10;;
26820;SDS011;37186;51.394;5.454;2023-04-24T14:44:11;3.20;;;3.10;;
26820;SDS011;37186;51.394;5.454;2023-04-24T14:47:12;3.30;;;3.20;;
26820;SDS011;37186;51.394;5.454;2023-04-24T14:50:13;3.27;;;3.17;;
26820;SDS011;37186;51.394;5.454;2023-04-24T14:53:14;3.43;;;3.33;;
26820;SDS011;37186;51.394;5.454;2023-04-24T14:56:14;3.37;;;3.27;;
26820;SDS011;37186;51.394;5.454;2023-04-24T14:59:15;3.27;;;3.17;;
26820;SDS011;37186;51.394;5.454;2023-04-24T15:02:16;3.23;;;3.13;;
26820;SDS011;37186;51.394;5.454;2023-04-24T15:05:16;2.97;;;2.87;;
26820;SDS011;37186;51.394;5.454;2023-04-24T15:08:17;3.30;;;3.20;;
26820;SDS011;37186;51.394;5.454;2023-04-24T15:11:17;3.20;;;3.10;;
26820;SDS011;37186;51.394;5.454;2023-04-24T15:14:18;3.37;;;3.27;;
26820;SDS011;37186;51.394;5.454;2023-04-24T15:17:19;3.37;;;3.27;;
26820;SDS011;37186;51.394;5.454;2023-04-24T15:20:19;3.47;;;3.37;;
26820;SDS011;37186;51.394;5.454;2023-04-24T15:23:20;3.50;;;3.40;;
26820;SDS011;37186;51.394;5.454;2023-04-24T15:26:21;3.63;;;3.53;;
26820;SDS011;37186;51.394;5.454;2023-04-24T15:29:22;3.77;;;3.67;;
26820;SDS011;37186;51.394;5.454;2023-04-24T15:32:23;4.00;;;3.90;;
26820;SDS011;37186;51.394;5.454;2023-04-24T15:35:23;3.70;;;3.60;;
26820;SDS011;37186;51.394;5.454;2023-04-24T15:38:24;3.20;;;3.10;;
26820;SDS011;37186;51.394;5.454;2023-04-24T15:41:25;3.58;;;3.47;;
26820;SDS011;37186;51.394;5.454;2023-04-24T15:44:25;3.75;;;3.65;;
26820;SDS011;37186;51.394;5.454;2023-04-24T15:47:26;3.50;;;3.40;;
26820;SDS011;37186;51.394;5.454;2023-04-24T15:50:27;3.70;;;3.60;;
26820;SDS011;37186;51.394;5.454;2023-04-24T15:53:28;3.42;;;3.33;;
26820;SDS011;37186;51.394;5.454;2023-04-24T15:56:28;3.30;;;3.20;;
26820;SDS011;37186;51.394;5.454;2023-04-24T15:59:29;2.95;;;2.85;;
26820;SDS011;37186;51.394;5.454;2023-04-24T16:02:30;2.90;;;2.80;;
26820;SDS011;37186;51.394;5.454;2023-04-24T16:05:30;2.80;;;2.70;;
26820;SDS011;37186;51.394;5.454;2023-04-24T16:08:31;2.95;;;2.85;;
26820;SDS011;37186;51.394;5.454;2023-04-24T16:11:32;3.20;;;3.10;;
26820;SDS011;37186;51.394;5.454;2023-04-24T16:14:35;3.10;;;3.00;;
26820;SDS011;37186;51.394;5.454;2023-04-24T16:17:37;2.95;;;2.85;;
26820;SDS011;37186;51.394;5.454;2023-04-24T16:20:37;3.20;;;3.10;;
26820;SDS011;37186;51.394;5.454;2023-04-24T16:23:38;3.42;;;3.33;;
26820;SDS011;37186;51.394;5.454;2023-04-24T16:26:38;3.55;;;3.45;;
26820;SDS011;37186;51.394;5.454;2023-04-24T16:29:39;3.42;;;3.33;;
26820;SDS011;37186;51.394;5.454;2023-04-24T16:32:39;3.75;;;3.65;;
26820;SDS011;37186;51.394;5.454;2023-04-24T16:35:40;4.80;;;4.70;;
26820;SDS011;37186;51.394;5.454;2023-04-24T16:38:42;4.50;;;4.40;;
26820;SDS011;37186;51.394;5.454;2023-04-24T16:41:42;3.95;;;3.85;;
26820;SDS011;37186;51.394;5.454;2023-04-24T16:44:43;4.10;;;4.00;;
26820;SDS011;37186;51.394;5.454;2023-04-24T16:47:43;4.00;;;3.90;;
26820;SDS011;37186;51.394;5.454;2023-04-24T16:50:44;4.32;;;4.22;;
26820;SDS011;37186;51.394;5.454;2023-04-24T16:53:47;4.30;;;4.20;;
26820;SDS011;37186;51.394;5.454;2023-04-24T16:56:48;5.15;;;5.05;;
26820;SDS011;37186;51.394;5.454;2023-04-24T16:59:48;5.27;;;5.17;;
26820;SDS011;37186;51.394;5.454;2023-04-24T17:02:49;5.50;;;5.40;;
26820;SDS011;37186;51.394;5.454;2023-04-24T17:05:49;5.80;;;5.60;;
26820;SDS011;37186;51.394;5.454;2023-04-24T17:08:50;5.20;;;5.10;;
26820;SDS011;37186;51.394;5.454;2023-04-24T17:11:50;5.20;;;5.10;;
26820;SDS011;37186;51.394;5.454;2023-04-24T17:14:51;5.57;;;5.47;;
26820;SDS011;37186;51.394;5.454;2023-04-24T17:17:51;4.73;;;4.63;;
26820;SDS011;37186;51.394;5.454;2023-04-24T17:20:52;4.23;;;4.13;;
26820;SDS011;37186;51.394;5.454;2023-04-24T17:23:53;3.67;;;3.57;;
26820;SDS011;37186;51.394;5.454;2023-04-24T17:26:53;3.57;;;3.47;;
26820;SDS011;37186;51.394;5.454;2023-04-24T17:29:55;3.13;;;3.03;;
26820;SDS011;37186;51.394;5.454;2023-04-24T17:32:55;3.43;;;3.33;;
26820;SDS011;37186;51.394;5.454;2023-04-24T17:35:56;3.97;;;3.88;;
26820;SDS011;37186;51.394;5.454;2023-04-24T17:38:57;4.30;;;4.20;;
26820;SDS011;37186;51.394;5.454;2023-04-24T17:41:58;4.60;;;4.50;;
26820;SDS011;37186;51.394;5.454;2023-04-24T17:44:58;4.70;;;4.60;;
26820;SDS011;37186;51.394;5.454;2023-04-24T17:47:59;4.70;;;4.60;;
26820;SDS011;37186;51.394;5.454;2023-04-24T17:51:00;5.10;;;5.00;;
26820;SDS011;37186;51.394;5.454;2023-04-24T17:54:00;4.90;;;4.80;;
26820;SDS011;37186;51.394;5.454;2023-04-24T17:57:01;5.10;;;5.00;;
26820;SDS011;37186;51.394;5.454;2023-04-24T18:00:02;4.73;;;4.63;;
26820;SDS011;37186;51.394;5.454;2023-04-24T18:03:04;4.60;;;4.50;;
26820;SDS011;37186;51.394;5.454;2023-04-24T18:06:06;5.00;;;4.90;;
26820;SDS011;37186;51.394;5.454;2023-04-24T18:09:06;4.80;;;4.70;;
26820;SDS011;37186;51.394;5.454;2023-04-24T18:12:07;4.00;;;3.90;;
26820;SDS011;37186;51.394;5.454;2023-04-24T18:15:08;3.83;;;3.73;;
26820;SDS011;37186;51.394;5.454;2023-04-24T18:18:09;3.80;;;3.70;;
26820;SDS011;37186;51.394;5.454;2023-04-24T18:21:10;3.70;;;3.60;;
26820;SDS011;37186;51.394;5.454;2023-04-24T18:24:11;3.63;;;3.53;;